Time;durP1;ratioP1;P1;durP2;ratioP2;P2;SDS_P1;SDS_P2;PMS_P1;PMS_P2;Temp;Humidity;BMP_temperature;BMP_pressure;BME280_temperature;BME280_humidity;BME280_pressure;Samples;Min_cycle;Max_cycle;Signal;HPM_P1;HPM_P2
2023/06/15 00:00:31;;;;;;;;;;;19.00;75.70;;;;;;5011362;28;87106;-49
2023/06/15 00:02:57;;;;;;;;;;;18.90;75.60;;;;;;5012640;28;87877;-51
2023/06/15 00:05:23;;;;;;;;;;;19.00;75.70;;;;;;5011699;28;89208;-51
2023/06/15 00:07:48;;;;;;;;;;;19.00;75.70;;;;;;5013893;28;87342;-50
2023/06/15 00:10:14;;;;;;;;;;;18.90;75.60;;;;;;5011116;28;89561;-50
2023/06/15 00:12:39;;;;;;;;;;;19.00;75.70;;;;;;5011174;28;87083;-54
2023/06/15 00:15:06;;;;;;;;;;;19.00;75.70;;;;;;5010093;28;87116;-49
2023/06/15 00:17:31;;;;;;;;;;;18.90;75.70;;;;;;5011912;28;89146;-50
2023/06/15 00:20:00;;;;;;;;;;;18.90;75.80;;;;;;5013660;28;87229;-52
2023/06/15 00:22:26;;;;;;;;;;;18.90;75.70;;;;;;5007532;28;88005;-52
2023/06/15 00:24:55;;;;;;;;;;;18.90;75.70;;;;;;5011257;28;89515;-52
2023/06/15 00:27:21;;;;;;;;;;;18.90;75.80;;;;;;5016425;28;86455;-49
2023/06/15 00:29:46;;;;;;;;;;;18.90;75.80;;;;;;5008538;28;88138;-51
2023/06/15 00:32:12;;;;;;;;;;;18.90;75.80;;;;;;5012145;28;87081;-50
2023/06/15 00:34:37;;;;;;;;;;;18.90;75.70;;;;;;5009045;28;87969;-52
2023/06/15 00:37:03;;;;;;;;;;;18.90;75.80;;;;;;5012004;28;88634;-47
2023/06/15 00:39:28;;;;;;;;;;;18.90;75.90;;;;;;5011164;28;87010;-48
2023/06/15 00:41:54;;;;;;;;;;;18.90;75.80;;;;;;5010295;28;87926;-50
2023/06/15 00:44:19;;;;;;;;;;;18.90;75.80;;;;;;5005908;28;88056;-50
2023/06/15 00:46:45;;;;;;;;;;;18.90;75.80;;;;;;5011161;28;87049;-52
2023/06/15 00:49:10;;;;;;;;;;;18.90;75.90;;;;;;5010673;28;87366;-53
2023/06/15 00:51:39;;;;;;;;;;;18.90;75.90;;;;;;5013135;28;86586;-52
2023/06/15 00:54:06;;;;;;;;;;;18.80;75.80;;;;;;5011516;28;87046;-49
2023/06/15 00:56:31;;;;;;;;;;;18.80;75.90;;;;;;5009525;28;88376;-51
2023/06/15 00:58:57;;;;;;;;;;;18.80;75.80;;;;;;5009011;28;88104;-49
2023/06/15 01:01:26;;;;;;;;;;;18.80;75.90;;;;;;5015095;28;88387;-47
2023/06/15 01:03:51;;;;;;;;;;;18.80;75.90;;;;;;5012740;28;88025;-50
2023/06/15 01:06:19;;;;;;;;;;;18.80;75.90;;;;;;5013148;28;87233;-49
2023/06/15 01:08:47;;;;;;;;;;;18.80;75.90;;;;;;5016459;28;87639;-48
2023/06/15 01:11:13;;;;;;;;;;;18.80;75.80;;;;;;5016050;28;87015;-52
2023/06/15 01:13:39;;;;;;;;;;;18.80;75.90;;;;;;5014395;28;87392;-51
2023/06/15 01:16:07;;;;;;;;;;;18.80;75.90;;;;;;5014210;28;88732;-52
2023/06/15 01:18:34;;;;;;;;;;;18.80;75.90;;;;;;5016389;28;87194;-53
2023/06/15 01:21:02;;;;;;;;;;;18.80;76.00;;;;;;5013332;28;88071;-49
2023/06/15 01:23:42;;;;;;;;;;;18.80;75.90;;;;;;5015295;28;89930;-50
2023/06/15 01:26:10;;;;;;;;;;;18.70;75.90;;;;;;5015764;28;87125;-52
2023/06/15 01:28:40;;;;;;;;;;;18.70;75.90;;;;;;5012929;28;87493;-53
2023/06/15 01:31:06;;;;;;;;;;;18.70;76.00;;;;;;5016796;28;88139;-50
2023/06/15 01:33:32;;;;;;;;;;;18.70;76.00;;;;;;5016599;28;87429;-53
2023/06/15 01:35:58;;;;;;;;;;;18.70;76.00;;;;;;5012008;28;88121;-53
2023/06/15 01:38:25;;;;;;;;;;;18.70;76.00;;;;;;5013767;28;87277;-50
2023/06/15 01:40:51;;;;;;;;;;;18.70;76.00;;;;;;5013198;28;88824;-53
2023/06/15 01:43:19;;;;;;;;;;;18.70;76.00;;;;;;5013627;28;88521;-53
2023/06/15 01:45:45;;;;;;;;;;;18.70;76.00;;;;;;5014268;28;87076;-50
2023/06/15 01:48:11;;;;;;;;;;;18.70;76.00;;;;;;5012422;28;88677;-51
2023/06/15 01:50:37;;;;;;;;;;;18.70;76.10;;;;;;5015336;28;87318;-54
2023/06/15 01:53:03;;;;;;;;;;;18.70;76.00;;;;;;5018118;28;87276;-50
2023/06/15 01:55:29;;;;;;;;;;;18.70;76.00;;;;;;5013109;28;87794;-54
2023/06/15 01:57:55;;;;;;;;;;;18.70;76.10;;;;;;5015340;28;87179;-51
2023/06/15 02:00:21;;;;;;;;;;;18.70;76.10;;;;;;5013187;28;87269;-52
2023/06/15 02:02:47;;;;;;;;;;;18.70;76.10;;;;;;5012637;28;89285;-50
2023/06/15 02:05:12;;;;;;;;;;;18.70;76.10;;;;;;5013911;28;86537;-47
2023/06/15 02:07:38;;;;;;;;;;;18.70;76.20;;;;;;5013756;28;87200;-49
2023/06/15 02:10:03;;;;;;;;;;;18.70;76.10;;;;;;5013672;28;88887;-48
2023/06/15 02:12:29;;;;;;;;;;;18.70;76.10;;;;;;5011643;28;88114;-49
2023/06/15 02:14:55;;;;;;;;;;;18.60;76.10;;;;;;5015032;28;87292;-50
2023/06/15 02:17:24;;;;;;;;;;;18.60;76.10;;;;;;5015528;28;87329;-52
2023/06/15 02:19:50;;;;;;;;;;;18.60;76.10;;;;;;5012299;28;90735;-50
2023/06/15 02:22:15;;;;;;;;;;;18.60;76.00;;;;;;5011605;28;88120;-48
2023/06/15 02:24:43;;;;;;;;;;;18.70;76.10;;;;;;5015144;28;87168;-51
2023/06/15 02:27:09;;;;;;;;;;;18.60;76.00;;;;;;5013758;28;87405;-50
2023/06/15 02:29:35;;;;;;;;;;;18.60;76.10;;;;;;5012082;28;88675;-52
2023/06/15 02:32:01;;;;;;;;;;;18.60;76.10;;;;;;5012748;28;87206;-49
2023/06/15 02:34:26;;;;;;;;;;;18.60;76.10;;;;;;5014660;28;87426;-51
2023/06/15 02:36:55;;;;;;;;;;;18.60;76.10;;;;;;5017041;28;88986;-49
2023/06/15 02:39:21;;;;;;;;;;;18.60;76.10;;;;;;5012184;28;89955;-49
2023/06/15 02:41:47;;;;;;;;;;;18.60;76.10;;;;;;5013754;28;88310;-52
2023/06/15 02:44:14;;;;;;;;;;;18.50;76.10;;;;;;5010549;28;87228;-50
2023/06/15 02:46:40;;;;;;;;;;;18.60;76.20;;;;;;5008777;28;88862;-49
2023/06/15 02:49:06;;;;;;;;;;;18.60;76.20;;;;;;5013564;28;88215;-52
2023/06/15 02:51:32;;;;;;;;;;;18.50;76.10;;;;;;5011738;28;87636;-50
2023/06/15 02:53:58;;;;;;;;;;;18.50;76.80;;;;;;5015268;28;89173;-49
2023/06/15 02:56:23;;;;;;;;;;;18.50;76.20;;;;;;5013040;28;88055;-49
2023/06/15 02:58:53;;;;;;;;;;;18.50;76.10;;;;;;5015662;28;87366;-53
2023/06/15 03:01:23;;;;;;;;;;;18.50;76.20;;;;;;5009227;28;90255;-50
2023/06/15 03:03:51;;;;;;;;;;;18.50;76.20;;;;;;5013999;28;87125;-50
2023/06/15 03:06:18;;;;;;;;;;;18.50;76.30;;;;;;5010079;28;87254;-50
2023/06/15 03:08:44;;;;;;;;;;;18.50;76.20;;;;;;5013162;28;89454;-49
2023/06/15 03:11:10;;;;;;;;;;;18.50;76.30;;;;;;5014648;28;87126;-52
2023/06/15 03:13:36;;;;;;;;;;;18.50;76.20;;;;;;5012137;28;87390;-51
2023/06/15 03:16:01;;;;;;;;;;;18.50;76.30;;;;;;5012668;28;88104;-48
2023/06/15 03:18:31;;;;;;;;;;;18.40;76.20;;;;;;5017983;28;86523;-48
2023/06/15 03:20:57;;;;;;;;;;;18.50;76.20;;;;;;5001082;28;88357;-49
2023/06/15 03:23:23;;;;;;;;;;;18.50;76.30;;;;;;5003703;28;87230;-47
2023/06/15 03:25:51;;;;;;;;;;;18.50;76.40;;;;;;5009597;28;88069;-48
2023/06/15 03:28:23;;;;;;;;;;;18.40;76.30;;;;;;5013487;28;88312;-52
2023/06/15 03:30:53;;;;;;;;;;;18.40;76.30;;;;;;5006766;28;87087;-46
2023/06/15 03:33:21;;;;;;;;;;;18.40;76.20;;;;;;4999876;28;88895;-48
2023/06/15 03:35:48;;;;;;;;;;;18.40;76.20;;;;;;5013373;28;87988;-50
2023/06/15 03:38:14;;;;;;;;;;;18.40;76.30;;;;;;5011900;28;87217;-50
2023/06/15 03:40:42;;;;;;;;;;;18.40;76.30;;;;;;5003405;28;90760;-52
2023/06/15 03:43:08;;;;;;;;;;;18.40;76.30;;;;;;5002588;28;86608;-52
2023/06/15 03:45:33;;;;;;;;;;;18.40;76.20;;;;;;5007239;28;87464;-49
2023/06/15 03:47:59;;;;;;;;;;;18.40;76.20;;;;;;5009818;28;87911;-49
2023/06/15 03:50:24;;;;;;;;;;;18.40;76.30;;;;;;5004630;28;88180;-49
2023/06/15 03:52:50;;;;;;;;;;;18.40;76.30;;;;;;5006987;28;88430;-52
2023/06/15 03:55:15;;;;;;;;;;;18.40;76.30;;;;;;5012921;28;87760;-48
2023/06/15 03:57:41;;;;;;;;;;;18.40;76.40;;;;;;5012599;28;87486;-50
2023/06/15 04:00:07;;;;;;;;;;;18.40;76.30;;;;;;5003301;28;88821;-53
2023/06/15 04:02:33;;;;;;;;;;;18.40;76.30;;;;;;5014367;28;90379;-49
2023/06/15 04:05:00;;;;;;;;;;;18.40;76.40;;;;;;5011928;28;87234;-48
2023/06/15 04:07:28;;;;;;;;;;;18.40;76.30;;;;;;5011064;28;88050;-48
2023/06/15 04:09:53;;;;;;;;;;;18.40;76.30;;;;;;5009114;28;87381;-50
2023/06/15 04:12:19;;;;;;;;;;;18.30;76.40;;;;;;5003663;28;87493;-52
2023/06/15 04:14:44;;;;;;;;;;;18.40;76.30;;;;;;5011415;28;88876;-48
2023/06/15 04:17:10;;;;;;;;;;;18.40;76.40;;;;;;5001262;28;87202;-49
2023/06/15 04:19:35;;;;;;;;;;;18.30;76.40;;;;;;5011127;28;87337;-48
2023/06/15 04:22:01;;;;;;;;;;;18.30;76.40;;;;;;5003615;28;87544;-50
2023/06/15 04:24:26;;;;;;;;;;;18.30;76.40;;;;;;5015903;28;87112;-50
2023/06/15 04:26:52;;;;;;;;;;;18.30;76.40;;;;;;5004745;28;88046;-49
2023/06/15 04:29:18;;;;;;;;;;;18.30;76.30;;;;;;5005770;28;87140;-50
2023/06/15 04:31:44;;;;;;;;;;;18.30;76.40;;;;;;5009408;28;87703;-52
2023/06/15 04:34:11;;;;;;;;;;;18.30;76.40;;;;;;5005162;28;87270;-48
2023/06/15 04:36:38;;;;;;;;;;;18.30;76.40;;;;;;5000242;28;87194;-53
2023/06/15 04:39:04;;;;;;;;;;;18.30;76.40;;;;;;5001821;28;90652;-50
2023/06/15 04:41:31;;;;;;;;;;;18.30;76.40;;;;;;5012126;28;88145;-53
2023/06/15 04:43:56;;;;;;;;;;;18.30;76.40;;;;;;5011365;28;87842;-52
2023/06/15 04:46:23;;;;;;;;;;;18.30;76.40;;;;;;5005320;28;87411;-49
2023/06/15 04:48:49;;;;;;;;;;;18.30;76.30;;;;;;5007411;28;88918;-50
2023/06/15 04:51:15;;;;;;;;;;;18.30;76.40;;;;;;5010711;28;87872;-50
2023/06/15 04:53:43;;;;;;;;;;;18.30;76.40;;;;;;5010059;28;88021;-55
2023/06/15 04:56:09;;;;;;;;;;;18.30;76.50;;;;;;5003174;28;87320;-49
2023/06/15 04:58:34;;;;;;;;;;;18.30;76.40;;;;;;5005388;28;87098;-50
2023/06/15 05:01:00;;;;;;;;;;;18.30;76.40;;;;;;5011438;28;87841;-50
2023/06/15 05:03:25;;;;;;;;;;;18.30;76.30;;;;;;5012433;28;88144;-48
2023/06/15 05:05:51;;;;;;;;;;;18.30;76.30;;;;;;5007186;28;88245;-51
2023/06/15 05:08:16;;;;;;;;;;;18.30;76.40;;;;;;5006144;28;87425;-48
2023/06/15 05:10:42;;;;;;;;;;;18.30;76.30;;;;;;5012303;28;87487;-52
2023/06/15 05:13:07;;;;;;;;;;;18.20;76.40;;;;;;5008542;28;88146;-50
2023/06/15 05:15:34;;;;;;;;;;;18.30;76.50;;;;;;4998128;28;88274;-51
2023/06/15 05:18:00;;;;;;;;;;;18.30;76.40;;;;;;5007549;28;87125;-52
2023/06/15 05:20:25;;;;;;;;;;;18.30;76.40;;;;;;5008901;28;89023;-45
2023/06/15 05:22:51;;;;;;;;;;;18.30;77.00;;;;;;5007189;28;87222;-52
2023/06/15 05:25:17;;;;;;;;;;;18.30;76.40;;;;;;5000175;28;89136;-51
2023/06/15 05:27:43;;;;;;;;;;;18.30;76.40;;;;;;5011170;28;89273;-51
2023/06/15 05:30:08;;;;;;;;;;;18.30;76.30;;;;;;5012989;28;88801;-48
2023/06/15 05:32:37;;;;;;;;;;;18.30;76.40;;;;;;4996668;28;89349;-48
2023/06/15 05:35:06;;;;;;;;;;;18.30;76.50;;;;;;5003838;28;87205;-50
2023/06/15 05:37:32;;;;;;;;;;;18.30;76.60;;;;;;5011531;28;87479;-48
2023/06/15 05:39:58;;;;;;;;;;;18.30;76.60;;;;;;5009998;28;89466;-47
2023/06/15 05:42:25;;;;;;;;;;;18.30;76.40;;;;;;5007147;28;87233;-51
2023/06/15 05:44:50;;;;;;;;;;;18.30;76.30;;;;;;5009683;28;88979;-49
2023/06/15 05:47:16;;;;;;;;;;;18.30;76.40;;;;;;5013470;28;87264;-51
2023/06/15 05:49:41;;;;;;;;;;;18.30;76.30;;;;;;5014552;28;88201;-50
2023/06/15 05:52:07;;;;;;;;;;;18.40;76.30;;;;;;5010628;28;88886;-49
2023/06/15 05:54:32;;;;;;;;;;;18.40;76.30;;;;;;5011119;28;87151;-48
2023/06/15 05:56:58;;;;;;;;;;;18.30;77.00;;;;;;5013150;28;89100;-47
2023/06/15 05:59:23;;;;;;;;;;;18.40;76.50;;;;;;5009852;28;88017;-48
2023/06/15 06:01:49;;;;;;;;;;;18.30;76.50;;;;;;5008716;28;87250;-50
2023/06/15 06:04:14;;;;;;;;;;;18.40;76.60;;;;;;5011318;28;88731;-52
2023/06/15 06:06:40;;;;;;;;;;;18.40;76.50;;;;;;5013313;28;88802;-51
2023/06/15 06:09:06;;;;;;;;;;;18.40;76.50;;;;;;5009804;28;86510;-50
2023/06/15 06:11:31;;;;;;;;;;;18.40;76.80;;;;;;5011839;28;87653;-51
2023/06/15 06:13:57;;;;;;;;;;;18.40;76.70;;;;;;5012343;28;87022;-51
2023/06/15 06:16:23;;;;;;;;;;;18.40;76.60;;;;;;5012640;28;87906;-50
2023/06/15 06:18:48;;;;;;;;;;;18.40;76.70;;;;;;5002744;28;87197;-50
2023/06/15 06:21:13;;;;;;;;;;;18.30;76.50;;;;;;5001490;28;87124;-51
2023/06/15 06:23:40;;;;;;;;;;;18.30;76.50;;;;;;5011147;28;87397;-51
2023/06/15 06:26:05;;;;;;;;;;;18.30;76.50;;;;;;5014962;28;89490;-51
2023/06/15 06:28:31;;;;;;;;;;;18.40;76.50;;;;;;5012056;28;87797;-48
2023/06/15 06:30:56;;;;;;;;;;;18.40;76.80;;;;;;5004959;28;87958;-50
2023/06/15 06:33:22;;;;;;;;;;;18.30;76.60;;;;;;5014630;28;87693;-51
2023/06/15 06:35:47;;;;;;;;;;;18.30;76.70;;;;;;5015665;28;87034;-47
2023/06/15 06:38:13;;;;;;;;;;;18.40;76.70;;;;;;5011428;28;87663;-52
2023/06/15 06:40:38;;;;;;;;;;;18.30;76.60;;;;;;5004295;28;88165;-53
2023/06/15 06:43:04;;;;;;;;;;;18.40;76.70;;;;;;5015277;28;88444;-47
2023/06/15 06:45:30;;;;;;;;;;;18.30;76.60;;;;;;5010127;28;88169;-51
2023/06/15 06:47:55;;;;;;;;;;;18.40;76.80;;;;;;4999188;28;87286;-51
2023/06/15 06:50:21;;;;;;;;;;;18.40;77.40;;;;;;5004843;28;87424;-49
2023/06/15 06:52:46;;;;;;;;;;;18.40;76.80;;;;;;5012528;28;88223;-49
2023/06/15 06:55:12;;;;;;;;;;;18.40;76.80;;;;;;5012344;28;87228;-49
2023/06/15 06:57:37;;;;;;;;;;;18.40;76.60;;;;;;5007276;28;87808;-50
2023/06/15 07:00:03;;;;;;;;;;;18.40;76.60;;;;;;5006451;28;87196;-49
2023/06/15 07:02:29;;;;;;;;;;;18.40;76.50;;;;;;5012452;28;87198;-46
2023/06/15 07:04:54;;;;;;;;;;;18.40;76.40;;;;;;5002701;28;88903;-49
2023/06/15 07:07:19;;;;;;;;;;;18.40;76.70;;;;;;5001955;28;87183;-51
2023/06/15 07:09:45;;;;;;;;;;;18.40;76.40;;;;;;5010545;28;87915;-50
2023/06/15 07:12:11;;;;;;;;;;;18.40;76.50;;;;;;5014155;28;87987;-48
2023/06/15 07:14:36;;;;;;;;;;;18.40;76.60;;;;;;5012692;28;88258;-49
2023/06/15 07:17:02;;;;;;;;;;;18.40;76.50;;;;;;5006800;28;88375;-51
2023/06/15 07:19:27;;;;;;;;;;;18.40;76.60;;;;;;5012637;28;87121;-48
2023/06/15 07:21:53;;;;;;;;;;;18.40;76.50;;;;;;5014351;28;87511;-51
2023/06/15 07:24:18;;;;;;;;;;;18.40;76.60;;;;;;5009387;28;87808;-47
2023/06/15 07:26:44;;;;;;;;;;;18.40;76.60;;;;;;5012198;28;87535;-48
2023/06/15 07:29:09;;;;;;;;;;;18.40;76.80;;;;;;5014138;28;88065;-50
2023/06/15 07:31:35;;;;;;;;;;;18.40;76.50;;;;;;5011025;28;89538;-49
2023/06/15 07:34:02;;;;;;;;;;;18.40;76.60;;;;;;5012895;28;87321;-47
2023/06/15 07:36:28;;;;;;;;;;;18.40;76.50;;;;;;5016913;28;87401;-49
2023/06/15 07:38:54;;;;;;;;;;;18.40;76.60;;;;;;5012101;28;87166;-48
2023/06/15 07:41:19;;;;;;;;;;;18.50;76.70;;;;;;5012311;28;88821;-50
2023/06/15 07:43:45;;;;;;;;;;;18.50;76.60;;;;;;5014006;28;88226;-48
2023/06/15 07:46:10;;;;;;;;;;;18.50;76.60;;;;;;5012390;28;87301;-47
2023/06/15 07:48:36;;;;;;;;;;;18.50;76.60;;;;;;5013364;28;87142;-48
2023/06/15 07:51:01;;;;;;;;;;;18.40;76.60;;;;;;5011312;28;87208;-51
2023/06/15 07:53:27;;;;;;;;;;;18.40;76.90;;;;;;5013511;28;88062;-50
2023/06/15 07:55:52;;;;;;;;;;;18.40;77.00;;;;;;5012442;28;88337;-49
2023/06/15 07:58:18;;;;;;;;;;;18.40;77.00;;;;;;5014566;28;87119;-50
2023/06/15 08:00:43;;;;;;;;;;;18.40;77.10;;;;;;5013818;28;87593;-50
2023/06/15 08:03:09;;;;;;;;;;;18.40;77.20;;;;;;5007675;28;87786;-48
2023/06/15 08:05:34;;;;;;;;;;;18.40;77.00;;;;;;5012994;28;87117;-49
2023/06/15 08:08:00;;;;;;;;;;;18.40;77.00;;;;;;5010853;28;88850;-48
2023/06/15 08:10:25;;;;;;;;;;;18.40;77.10;;;;;;5012109;28;87375;-50
2023/06/15 08:12:51;;;;;;;;;;;18.40;77.00;;;;;;5012905;28;87199;-48
2023/06/15 08:15:16;;;;;;;;;;;18.40;77.00;;;;;;5010864;28;87870;-47
2023/06/15 08:17:42;;;;;;;;;;;18.40;77.00;;;;;;5011553;28;89188;-49
2023/06/15 08:20:09;;;;;;;;;;;18.40;77.00;;;;;;5015573;28;87206;-47
2023/06/15 08:22:35;;;;;;;;;;;18.40;77.00;;;;;;5010338;28;89499;-47
2023/06/15 08:25:00;;;;;;;;;;;18.40;77.00;;;;;;5013008;28;87195;-48
2023/06/15 08:27:26;;;;;;;;;;;18.40;76.90;;;;;;5012801;28;87397;-49
2023/06/15 08:29:51;;;;;;;;;;;18.40;77.00;;;;;;5010611;28;88226;-51
2023/06/15 08:32:17;;;;;;;;;;;18.40;77.10;;;;;;5010106;28;87162;-52
2023/06/15 08:34:43;;;;;;;;;;;18.40;77.00;;;;;;5012384;28;88787;-50
2023/06/15 08:37:11;;;;;;;;;;;18.40;77.00;;;;;;5013236;28;87774;-50
2023/06/15 08:39:37;;;;;;;;;;;18.40;77.10;;;;;;5007289;28;87209;-49
2023/06/15 08:42:02;;;;;;;;;;;18.40;77.10;;;;;;5013661;28;88999;-51
2023/06/15 08:44:29;;;;;;;;;;;18.40;77.20;;;;;;5013236;28;87251;-49
2023/06/15 08:46:56;;;;;;;;;;;18.40;77.20;;;;;;5009327;28;87678;-48
2023/06/15 08:49:23;;;;;;;;;;;18.40;77.10;;;;;;5009857;28;89954;-50
2023/06/15 08:51:49;;;;;;;;;;;18.40;77.20;;;;;;5010758;28;87087;-47
2023/06/15 08:54:18;;;;;;;;;;;18.40;77.10;;;;;;5012837;28;87467;-51
2023/06/15 08:56:43;;;;;;;;;;;18.40;77.00;;;;;;5012478;28;89812;-49
2023/06/15 08:59:09;;;;;;;;;;;18.40;77.30;;;;;;5011066;28;86828;-49
2023/06/15 09:01:39;;;;;;;;;;;18.40;77.20;;;;;;5012025;28;88073;-51
2023/06/15 09:04:05;;;;;;;;;;;18.40;77.10;;;;;;5010774;28;89177;-50
2023/06/15 09:06:30;;;;;;;;;;;18.40;77.20;;;;;;5012634;28;87982;-50
2023/06/15 09:08:56;;;;;;;;;;;18.40;77.30;;;;;;5011549;28;87268;-52
2023/06/15 09:11:22;;;;;;;;;;;18.40;77.20;;;;;;5010536;28;87125;-53
2023/06/15 09:13:50;;;;;;;;;;;18.40;77.20;;;;;;5012998;28;87815;-51
2023/06/15 09:16:16;;;;;;;;;;;18.40;77.20;;;;;;5011658;28;88071;-48
2023/06/15 09:18:46;;;;;;;;;;;18.50;77.20;;;;;;5009813;28;87183;-49
2023/06/15 09:21:12;;;;;;;;;;;18.50;77.20;;;;;;5012661;28;88793;-52
2023/06/15 09:23:42;;;;;;;;;;;18.50;77.30;;;;;;5017300;28;87570;-50
2023/06/15 09:26:08;;;;;;;;;;;18.50;77.20;;;;;;5010105;28;87008;-50
2023/06/15 09:28:33;;;;;;;;;;;18.50;77.10;;;;;;5014704;28;87931;-50
2023/06/15 09:31:00;;;;;;;;;;;18.50;77.20;;;;;;5015342;28;88199;-51
2023/06/15 09:33:26;;;;;;;;;;;18.50;77.30;;;;;;5012803;28;89851;-52
2023/06/15 09:35:54;;;;;;;;;;;18.50;77.30;;;;;;5014590;28;89361;-51
2023/06/15 09:38:20;;;;;;;;;;;18.50;77.30;;;;;;5015927;28;87241;-49
2023/06/15 09:40:46;;;;;;;;;;;18.50;77.30;;;;;;5013283;28;87410;-52
2023/06/15 09:43:13;;;;;;;;;;;18.50;77.30;;;;;;5014329;28;87878;-52
2023/06/15 09:45:58;;;;;;;;;;;18.50;77.40;;;;;;5018656;28;87138;-52
2023/06/15 09:48:24;;;;;;;;;;;18.40;77.30;;;;;;5010283;28;87438;-52
2023/06/15 09:50:51;;;;;;;;;;;18.50;77.50;;;;;;5013864;28;87122;-54
2023/06/15 09:53:17;;;;;;;;;;;18.40;77.30;;;;;;5014223;28;87026;-53
2023/06/15 09:55:45;;;;;;;;;;;18.50;77.50;;;;;;5014887;28;90187;-53
2023/06/15 09:58:11;;;;;;;;;;;18.50;77.50;;;;;;5013920;28;87074;-49
2023/06/15 10:00:36;;;;;;;;;;;18.50;77.30;;;;;;5013698;28;89287;-54
2023/06/15 10:03:03;;;;;;;;;;;18.40;77.30;;;;;;5011785;28;88029;-51
2023/06/15 10:05:31;;;;;;;;;;;18.50;77.40;;;;;;5014890;28;86993;-49
2023/06/15 10:07:57;;;;;;;;;;;18.50;77.20;;;;;;5018075;28;88840;-50
2023/06/15 10:10:23;;;;;;;;;;;18.50;77.20;;;;;;5013113;28;87185;-49
2023/06/15 10:12:52;;;;;;;;;;;18.50;77.20;;;;;;5015264;28;87425;-49
2023/06/15 10:15:20;;;;;;;;;;;18.50;77.30;;;;;;5015119;28;89523;-53
2023/06/15 10:17:47;;;;;;;;;;;18.50;77.20;;;;;;5007637;28;87181;-51
2023/06/15 10:20:17;;;;;;;;;;;18.50;77.20;;;;;;5013998;28;89027;-47
2023/06/15 10:22:56;;;;;;;;;;;18.50;77.10;;;;;;5012409;28;89469;-52
2023/06/15 10:25:22;;;;;;;;;;;18.50;77.10;;;;;;5012505;28;87113;-50
2023/06/15 10:27:48;;;;;;;;;;;18.50;77.10;;;;;;5014759;28;89524;-50
2023/06/15 10:30:17;;;;;;;;;;;18.50;77.10;;;;;;5016783;28;90225;-47
2023/06/15 10:32:51;;;;;;;;;;;18.50;77.00;;;;;;5011576;28;87579;-46
2023/06/15 10:35:21;;;;;;;;;;;18.50;77.30;;;;;;5012025;28;89244;-49
2023/06/15 10:37:53;;;;;;;;;;;18.50;77.20;;;;;;5012955;28;86439;-47
2023/06/15 10:40:23;;;;;;;;;;;18.50;77.20;;;;;;5013038;28;87339;-52
2023/06/15 10:42:49;;;;;;;;;;;18.60;77.30;;;;;;5014783;28;88173;-50
2023/06/15 10:45:24;;;;;;;;;;;18.60;77.10;;;;;;5012966;28;88135;-52
2023/06/15 10:47:50;;;;;;;;;;;18.60;77.10;;;;;;5012316;28;88389;-51
2023/06/15 10:50:16;;;;;;;;;;;18.60;77.00;;;;;;5012380;28;87813;-52
2023/06/15 10:52:42;;;;;;;;;;;18.60;77.10;;;;;;5015446;28;87102;-47
2023/06/15 10:55:08;;;;;;;;;;;18.60;77.10;;;;;;5014957;28;87914;-46
2023/06/15 10:57:35;;;;;;;;;;;18.60;77.30;;;;;;5013467;28;87129;-51
2023/06/15 11:00:00;;;;;;;;;;;18.60;77.20;;;;;;5012759;28;87602;-49
2023/06/15 11:02:29;;;;;;;;;;;18.60;77.30;;;;;;5015043;28;88227;-50
2023/06/15 11:05:04;;;;;;;;;;;18.60;77.40;;;;;;5011253;28;87220;-50
2023/06/15 11:07:32;;;;;;;;;;;18.60;77.40;;;;;;5008768;28;87523;-46
2023/06/15 11:10:00;;;;;;;;;;;18.60;77.40;;;;;;5011979;28;89945;-47
2023/06/15 11:12:36;;;;;;;;;;;18.60;77.50;;;;;;5014804;28;87117;-51
2023/06/15 11:15:02;;;;;;;;;;;18.70;77.40;;;;;;5016600;28;89435;-50
2023/06/15 11:17:28;;;;;;;;;;;18.60;77.40;;;;;;5011545;28;87986;-49
2023/06/15 11:19:53;;;;;;;;;;;18.70;77.40;;;;;;5013344;28;87698;-48
2023/06/15 11:22:25;;;;;;;;;;;18.60;77.40;;;;;;5013714;28;87937;-47
2023/06/15 11:24:53;;;;;;;;;;;18.70;77.40;;;;;;5008488;28;87031;-50
2023/06/15 11:27:20;;;;;;;;;;;18.70;77.50;;;;;;5013264;28;87443;-49
2023/06/15 11:29:46;;;;;;;;;;;18.70;77.50;;;;;;5014015;28;87969;-49
2023/06/15 11:32:13;;;;;;;;;;;18.70;77.60;;;;;;5012144;28;87104;-48
2023/06/15 11:34:39;;;;;;;;;;;18.70;77.60;;;;;;5015255;28;88404;-50
2023/06/15 11:37:06;;;;;;;;;;;18.60;77.60;;;;;;5011712;28;87200;-49
2023/06/15 11:39:33;;;;;;;;;;;18.70;77.60;;;;;;5013188;28;87567;-47
2023/06/15 11:42:00;;;;;;;;;;;18.70;77.60;;;;;;5013595;28;88025;-49
2023/06/15 11:44:30;;;;;;;;;;;18.70;77.50;;;;;;5011226;28;87193;-52
2023/06/15 11:46:58;;;;;;;;;;;18.80;77.40;;;;;;5012553;28;87330;-48
2023/06/15 11:49:24;;;;;;;;;;;18.80;77.60;;;;;;5011782;28;89493;-51
2023/06/15 11:51:52;;;;;;;;;;;18.80;77.50;;;;;;5012588;28;86356;-52
2023/06/15 11:54:22;;;;;;;;;;;18.80;77.60;;;;;;5011836;28;88468;-46
2023/06/15 11:56:48;;;;;;;;;;;18.80;77.50;;;;;;5010392;28;88194;-50
2023/06/15 11:59:17;;;;;;;;;;;18.80;77.60;;;;;;5011667;28;88781;-47
2023/06/15 12:01:46;;;;;;;;;;;18.80;77.60;;;;;;5013757;28;88046;-48
2023/06/15 12:04:15;;;;;;;;;;;18.80;77.50;;;;;;5011300;28;87509;-44
2023/06/15 12:06:41;;;;;;;;;;;18.80;77.50;;;;;;5011380;28;87045;-48
2023/06/15 12:09:07;;;;;;;;;;;18.80;77.40;;;;;;5007492;28;88174;-47
2023/06/15 12:11:33;;;;;;;;;;;18.90;77.70;;;;;;5012566;28;87103;-45
2023/06/15 12:14:00;;;;;;;;;;;18.90;77.60;;;;;;5013626;28;87700;-46
2023/06/15 12:16:25;;;;;;;;;;;18.90;77.50;;;;;;5007872;28;87337;-44
2023/06/15 12:18:54;;;;;;;;;;;18.90;77.60;;;;;;5015507;28;87112;-48
2023/06/15 12:21:20;;;;;;;;;;;19.00;77.40;;;;;;5013461;28;88055;-50
2023/06/15 12:23:48;;;;;;;;;;;19.00;77.50;;;;;;5010868;28;88067;-46
2023/06/15 12:26:15;;;;;;;;;;;18.90;77.50;;;;;;5011766;28;88746;-49
2023/06/15 12:28:41;;;;;;;;;;;18.90;77.60;;;;;;5013097;28;87234;-49
2023/06/15 12:31:10;;;;;;;;;;;18.90;77.60;;;;;;5011866;28;87129;-50
2023/06/15 12:33:38;;;;;;;;;;;19.00;77.70;;;;;;5011093;28;87346;-50
2023/06/15 12:36:11;;;;;;;;;;;19.00;77.70;;;;;;5009848;28;89422;-47
2023/06/15 12:38:36;;;;;;;;;;;19.00;77.60;;;;;;5011351;28;87204;-52
2023/06/15 12:41:02;;;;;;;;;;;19.00;77.80;;;;;;5015975;28;88961;-49
2023/06/15 12:43:27;;;;;;;;;;;19.00;77.90;;;;;;5011900;28;87048;-51
2023/06/15 12:45:54;;;;;;;;;;;19.00;77.90;;;;;;5011366;28;87117;-51
2023/06/15 12:48:20;;;;;;;;;;;19.10;77.90;;;;;;5012259;28;90144;-51
2023/06/15 12:50:47;;;;;;;;;;;19.10;77.90;;;;;;5009723;28;87150;-51
2023/06/15 12:53:12;;;;;;;;;;;19.10;78.10;;;;;;5012953;28;89192;-49
2023/06/15 12:55:38;;;;;;;;;;;19.10;77.90;;;;;;5009500;28;87969;-49
2023/06/15 12:58:03;;;;;;;;;;;19.10;78.00;;;;;;5012307;28;87245;-48
2023/06/15 13:00:29;;;;;;;;;;;19.10;77.90;;;;;;5012757;28;87683;-49
2023/06/15 13:02:55;;;;;;;;;;;19.10;78.00;;;;;;5013004;28;88202;-51
2023/06/15 13:05:21;;;;;;;;;;;19.10;77.90;;;;;;5011583;28;87611;-48
2023/06/15 13:07:47;;;;;;;;;;;19.10;78.00;;;;;;5010753;28;89201;-51
2023/06/15 13:10:12;;;;;;;;;;;19.10;78.10;;;;;;5013136;28;87250;-52
2023/06/15 13:12:38;;;;;;;;;;;19.10;78.10;;;;;;5010291;28;88813;-47
2023/06/15 13:15:05;;;;;;;;;;;19.10;78.00;;;;;;5010923;28;88017;-51
2023/06/15 13:17:31;;;;;;;;;;;19.10;78.00;;;;;;5012914;28;87311;-53
2023/06/15 13:19:57;;;;;;;;;;;19.20;77.90;;;;;;5010150;28;88948;-52
2023/06/15 13:22:22;;;;;;;;;;;19.10;77.90;;;;;;5011746;28;88177;-51
2023/06/15 13:24:48;;;;;;;;;;;19.20;77.70;;;;;;5012986;28;87029;-50
2023/06/15 13:27:13;;;;;;;;;;;19.20;77.70;;;;;;5012071;28;88028;-53
2023/06/15 13:29:39;;;;;;;;;;;19.20;78.00;;;;;;5012348;28;86575;-53
2023/06/15 13:32:05;;;;;;;;;;;19.20;77.80;;;;;;5010287;28;87090;-52
2023/06/15 13:34:31;;;;;;;;;;;19.20;77.80;;;;;;5011570;28;88048;-50
2023/06/15 13:36:57;;;;;;;;;;;19.20;78.00;;;;;;5010681;28;88280;-50
2023/06/15 13:39:22;;;;;;;;;;;19.20;77.80;;;;;;5012499;28;88159;-53
2023/06/15 13:41:48;;;;;;;;;;;19.30;77.90;;;;;;5008273;28;88659;-53
2023/06/15 13:44:13;;;;;;;;;;;19.30;77.90;;;;;;5014292;28;87443;-52
2023/06/15 13:46:39;;;;;;;;;;;19.30;78.30;;;;;;5012396;28;87333;-48
2023/06/15 13:49:08;;;;;;;;;;;19.20;77.70;;;;;;5009945;28;87115;-49
2023/06/15 13:51:38;;;;;;;;;;;19.30;77.90;;;;;;5009390;28;87365;-49
2023/06/15 13:54:03;;;;;;;;;;;19.30;77.80;;;;;;5012657;28;86472;-44
2023/06/15 13:56:29;;;;;;;;;;;19.30;78.10;;;;;;5008917;28;87272;-45
2023/06/15 13:58:55;;;;;;;;;;;19.30;78.00;;;;;;5010595;28;87474;-50
2023/06/15 14:01:23;;;;;;;;;;;19.20;78.10;;;;;;5011337;28;90207;-48
2023/06/15 14:03:53;;;;;;;;;;;19.20;78.10;;;;;;5009230;28;87124;-48
2023/06/15 14:06:19;;;;;;;;;;;19.20;78.10;;;;;;5011747;28;87807;-49
2023/06/15 14:08:44;;;;;;;;;;;19.20;78.30;;;;;;5012790;28;87104;-47
2023/06/15 14:11:10;;;;;;;;;;;19.20;78.20;;;;;;5014518;28;87486;-50